Time;durP1;ratioP1;P1;durP2;ratioP2;P2;SDS_P1;SDS_P2;PMS_P1;PMS_P2;Temp;Humidity;BMP_temperature;BMP_pressure;BME280_temperature;BME280_humidity;BME280_pressure;Samples;Min_cycle;Max_cycle;Signal;HPM_P1;HPM_P2
2021/09/08 00:01:26;;;;;;;1999.90;999.90;;;19.60;99.90;;;;;;5013936;28;20174;-86
2021/09/08 00:03:51;;;;;;;1999.90;999.90;;;19.60;99.90;;;;;;5013810;28;20916;-86
2021/09/08 00:06:17;;;;;;;1999.90;999.90;;;19.60;99.90;;;;;;5014374;28;20543;-86
2021/09/08 00:08:43;;;;;;;1999.90;999.90;;;19.60;99.90;;;;;;5014964;28;20191;-86
2021/09/08 00:11:09;;;;;;;1999.90;999.90;;;19.60;99.90;;;;;;5013725;28;20176;-86
2021/09/08 00:13:34;;;;;;;1999.90;999.90;;;19.50;99.90;;;;;;5015001;28;20167;-86
2021/09/08 00:16:00;;;;;;;1999.90;999.90;;;19.50;99.90;;;;;;5015236;28;20565;-86
2021/09/08 00:18:26;;;;;;;1999.90;999.90;;;19.50;99.90;;;;;;5013772;28;20532;-86
2021/09/08 00:20:51;;;;;;;1999.90;999.90;;;19.50;99.90;;;;;;5015095;28;20630;-86
2021/09/08 00:23:17;;;;;;;1999.90;999.90;;;19.50;99.90;;;;;;5013794;28;20172;-86
2021/09/08 00:25:43;;;;;;;1999.90;999.90;;;19.40;99.90;;;;;;5014798;28;20173;-86
2021/09/08 00:28:08;;;;;;;1999.90;999.90;;;19.40;99.90;;;;;;5014768;28;20180;-86
2021/09/08 00:30:34;;;;;;;1999.90;999.90;;;19.40;99.90;;;;;;5013962;28;20712;-86
2021/09/08 00:33:00;;;;;;;1999.90;999.90;;;19.40;99.90;;;;;;5013471;28;20206;-86
2021/09/08 00:35:25;;;;;;;1999.90;999.90;;;19.40;99.90;;;;;;5014849;28;20464;-86
2021/09/08 00:37:51;;;;;;;1999.90;999.90;;;19.20;99.90;;;;;;5013459;28;20188;-86
2021/09/08 00:40:17;;;;;;;1999.90;999.90;;;19.20;99.90;;;;;;5014837;28;20681;-86
2021/09/08 00:42:43;;;;;;;1999.90;999.90;;;19.10;99.90;;;;;;5014470;28;20185;-86
2021/09/08 00:45:10;;;;;;;1999.90;999.90;;;19.10;99.90;;;;;;5013792;28;20173;-86
2021/09/08 00:47:36;;;;;;;1999.90;999.90;;;19.20;99.90;;;;;;5014404;28;20798;-87
2021/09/08 00:50:02;;;;;;;1999.90;999.90;;;19.20;99.90;;;;;;5014908;28;20399;-87
2021/09/08 00:52:28;;;;;;;1999.90;999.90;;;19.10;99.90;;;;;;5014479;28;20934;-86
2021/09/08 00:54:55;;;;;;;1999.90;999.90;;;19.00;99.90;;;;;;5014328;28;20424;-86
2021/09/08 00:57:21;;;;;;;1999.90;999.90;;;19.00;99.90;;;;;;5014399;28;20471;-86
2021/09/08 00:59:47;;;;;;;1999.90;999.90;;;19.00;99.90;;;;;;5013171;28;20421;-86
2021/09/08 01:02:14;;;;;;;1999.90;999.90;;;18.80;99.90;;;;;;5013819;28;20552;-86
2021/09/08 01:04:39;;;;;;;1999.90;999.90;;;18.50;99.90;;;;;;5014605;28;20409;-86
2021/09/08 01:07:06;;;;;;;1999.90;999.90;;;18.60;99.90;;;;;;5014211;28;20431;-86
2021/09/08 01:09:32;;;;;;;1999.90;999.90;;;18.60;99.90;;;;;;5013436;28;20500;-86
2021/09/08 01:11:58;;;;;;;1999.90;999.90;;;18.50;99.90;;;;;;5014578;28;20840;-86
2021/09/08 01:14:25;;;;;;;1999.90;999.90;;;18.60;99.90;;;;;;5014335;28;20428;-86
2021/09/08 01:16:52;;;;;;;1999.90;999.90;;;18.70;99.90;;;;;;5014217;28;20440;-86
2021/09/08 01:19:18;;;;;;;1999.90;999.90;;;18.80;99.90;;;;;;5014137;28;20405;-86
2021/09/08 01:21:47;;;;;;;1999.90;999.90;;;18.70;99.90;;;;;;5014157;28;20409;-86
2021/09/08 01:24:14;;;;;;;1999.90;999.90;;;18.60;99.90;;;;;;5014221;28;20456;-86
2021/09/08 01:26:43;;;;;;;1999.90;999.90;;;18.50;99.90;;;;;;5014281;28;20431;-86
2021/09/08 01:29:10;;;;;;;1999.90;999.90;;;18.50;99.90;;;;;;5012941;28;20411;-86
2021/09/08 01:31:36;;;;;;;1999.90;999.90;;;18.40;99.90;;;;;;5013947;28;20445;-86
2021/09/08 01:34:03;;;;;;;1999.90;999.90;;;18.30;99.90;;;;;;5013713;28;20769;-86
2021/09/08 01:36:28;;;;;;;1999.90;999.90;;;18.20;99.90;;;;;;5012773;28;20443;-86
2021/09/08 01:38:54;;;;;;;1999.90;999.90;;;18.30;99.90;;;;;;5013225;28;20487;-86
2021/09/08 01:41:20;;;;;;;1999.90;999.90;;;18.30;99.90;;;;;;5014186;28;20169;-86
2021/09/08 01:43:46;;;;;;;1999.90;999.90;;;18.30;99.90;;;;;;5013458;28;20185;-86
2021/09/08 01:46:22;;;;;;;1999.90;999.90;;;18.40;99.90;;;;;;5013620;28;20273;-86
2021/09/08 01:48:48;;;;;;;1999.90;999.90;;;18.50;99.90;;;;;;5012385;28;20416;-86
2021/09/08 01:51:14;;;;;;;1999.90;999.90;;;18.60;99.90;;;;;;5013908;28;20978;-86
2021/09/08 01:53:41;;;;;;;1999.90;999.90;;;18.70;99.90;;;;;;5013663;28;20401;-87
2021/09/08 01:56:07;;;;;;;1999.90;999.90;;;18.70;99.90;;;;;;5012182;28;20795;-86
2021/09/08 01:58:33;;;;;;;1999.90;999.90;;;18.70;99.90;;;;;;5012439;28;20939;-86
2021/09/08 02:00:59;;;;;;;1999.90;999.90;;;18.60;99.90;;;;;;5013457;28;20400;-86
2021/09/08 02:03:25;;;;;;;1999.90;999.90;;;18.50;99.90;;;;;;5013458;28;20159;-86
2021/09/08 02:05:50;;;;;;;1999.90;999.90;;;18.40;99.90;;;;;;5013554;28;20760;-86
2021/09/08 02:08:16;;;;;;;1999.90;999.90;;;18.40;99.90;;;;;;5012040;28;20228;-86
2021/09/08 02:10:42;;;;;;;1999.90;999.90;;;18.40;99.90;;;;;;5013454;28;20166;-86
2021/09/08 02:13:08;;;;;;;1999.90;999.90;;;18.20;99.90;;;;;;5013692;28;20194;-86
2021/09/08 02:15:34;;;;;;;1999.90;999.90;;;18.10;99.90;;;;;;5013629;28;20167;-86
2021/09/08 02:18:00;;;;;;;1999.90;999.90;;;17.90;99.90;;;;;;5012254;28;20455;-86
2021/09/08 02:20:26;;;;;;;1999.90;999.90;;;17.80;99.90;;;;;;5012608;28;20166;-86
2021/09/08 02:22:51;;;;;;;1999.90;999.90;;;17.90;99.90;;;;;;5013924;28;20404;-87
2021/09/08 02:25:17;;;;;;;1999.90;999.90;;;17.90;99.90;;;;;;5012507;28;20180;-86
2021/09/08 02:27:43;;;;;;;1999.90;999.90;;;18.00;99.90;;;;;;5013325;28;20186;-87
2021/09/08 02:30:09;;;;;;;1999.90;999.90;;;18.10;99.90;;;;;;5014585;28;20506;-87
2021/09/08 02:32:36;;;;;;;1999.90;999.90;;;18.10;99.90;;;;;;5015696;28;20467;-86
2021/09/08 02:35:02;;;;;;;1999.90;999.90;;;18.20;99.90;;;;;;5017023;28;20397;-86
2021/09/08 02:37:28;;;;;;;1999.90;999.90;;;18.20;99.90;;;;;;5016931;28;20432;-86
2021/09/08 02:39:54;;;;;;;1999.90;999.90;;;18.10;99.90;;;;;;5015803;28;20405;-86
2021/09/08 02:42:25;;;;;;;1999.90;999.90;;;18.00;99.90;;;;;;5017388;28;20166;-86
2021/09/08 02:44:54;;;;;;;1999.90;999.90;;;17.90;99.90;;;;;;5016146;28;20225;-86
2021/09/08 02:47:20;;;;;;;1999.90;999.90;;;18.00;99.90;;;;;;5017650;28;20508;-86
2021/09/08 02:49:46;;;;;;;1999.90;999.90;;;18.00;99.90;;;;;;5017105;28;20811;-86
2021/09/08 02:52:13;;;;;;;1999.90;999.90;;;18.10;99.90;;;;;;5016823;28;20217;-86
2021/09/08 02:54:39;;;;;;;1999.90;999.90;;;18.20;99.90;;;;;;5016701;28;20163;-86
2021/09/08 02:57:05;;;;;;;1999.90;999.90;;;18.20;99.90;;;;;;5016907;28;20417;-86
2021/09/08 02:59:30;;;;;;;1999.90;999.90;;;18.20;99.90;;;;;;5015304;28;20174;-87
2021/09/08 03:01:56;;;;;;;1999.90;999.90;;;18.20;99.90;;;;;;5015720;28;20257;-86
2021/09/08 03:04:22;;;;;;;1999.90;999.90;;;18.20;99.90;;;;;;5016889;28;20177;-86
2021/09/08 03:06:49;;;;;;;1999.90;999.90;;;18.20;99.90;;;;;;5016773;28;20193;-86
2021/09/08 03:09:15;;;;;;;1999.90;999.90;;;18.20;99.90;;;;;;5016949;28;20170;-86
2021/09/08 03:11:42;;;;;;;1999.90;999.90;;;18.20;99.90;;;;;;5016498;28;20449;-86
2021/09/08 03:14:07;;;;;;;1999.90;999.90;;;18.20;99.90;;;;;;5015080;28;20503;-86
2021/09/08 03:16:33;;;;;;;1999.90;999.90;;;18.10;99.90;;;;;;5016473;28;20512;-86
2021/09/08 03:18:59;;;;;;;1999.90;999.90;;;18.10;99.90;;;;;;5016542;28;20166;-86
2021/09/08 03:21:24;;;;;;;1999.90;999.90;;;18.10;99.90;;;;;;5015098;28;20182;-86
2021/09/08 03:23:50;;;;;;;1999.90;999.90;;;18.10;99.90;;;;;;5016638;28;20189;-86
2021/09/08 03:26:16;;;;;;;1999.90;999.90;;;18.10;99.90;;;;;;5016399;28;20198;-87
2021/09/08 03:28:41;;;;;;;1999.90;999.90;;;18.10;99.90;;;;;;5015036;28;20253;-86
2021/09/08 03:31:08;;;;;;;1999.90;999.90;;;18.10;99.90;;;;;;5014849;28;20595;-86
2021/09/08 03:33:33;;;;;;;1999.90;999.90;;;18.10;99.90;;;;;;5014976;28;20166;-86
2021/09/08 03:35:59;;;;;;;1999.90;999.90;;;18.00;99.90;;;;;;5015011;28;20417;-86
2021/09/08 03:38:24;;;;;;;1999.90;999.90;;;18.00;99.90;;;;;;5019276;28;20189;-87
2021/09/08 03:40:50;;;;;;;1999.90;999.90;;;18.00;99.90;;;;;;5016166;28;20163;-86
2021/09/08 03:43:16;;;;;;;1999.90;999.90;;;17.90;99.90;;;;;;5090903;22;20287;-87
2021/09/08 03:45:41;;;;;;;1999.90;999.90;;;17.90;99.90;;;;;;5015827;28;20154;-87
2021/09/08 03:48:07;;;;;;;1999.90;999.90;;;17.90;99.90;;;;;;5015747;28;20209;-87
2021/09/08 03:50:33;;;;;;;1999.90;999.90;;;17.80;99.90;;;;;;5015404;28;20198;-87
2021/09/08 03:52:59;;;;;;;1999.90;999.90;;;17.80;99.90;;;;;;5015464;28;20194;-87
2021/09/08 03:55:24;;;;;;;1999.90;999.90;;;17.80;99.90;;;;;;5014362;28;20252;-87
2021/09/08 03:57:50;;;;;;;1999.90;999.90;;;17.80;99.90;;;;;;5014232;28;20201;-87
2021/09/08 04:00:16;;;;;;;1999.90;999.90;;;17.80;99.90;;;;;;5015297;28;20169;-87
2021/09/08 04:02:42;;;;;;;1999.90;999.90;;;17.70;99.90;;;;;;5013881;28;20616;-87
2021/09/08 04:05:08;;;;;;;1999.90;999.90;;;17.70;99.90;;;;;;5014111;28;20424;-88
2021/09/08 04:07:34;;;;;;;1999.90;999.90;;;17.70;99.90;;;;;;5014535;28;20537;-88
2021/09/08 04:09:59;;;;;;;1999.90;999.90;;;17.60;99.90;;;;;;5013710;28;20408;-88
2021/09/08 04:12:25;;;;;;;1999.90;999.90;;;17.60;99.90;;;;;;5014772;28;20192;-88
2021/09/08 04:14:53;;;;;;;1999.90;999.90;;;17.50;99.90;;;;;;5015140;28;20196;-88
2021/09/08 04:17:19;;;;;;;1999.90;999.90;;;17.50;99.90;;;;;;5014764;28;20202;-88
2021/09/08 04:19:45;;;;;;;1999.90;999.90;;;17.50;99.90;;;;;;5014914;28;20440;-88
2021/09/08 04:22:10;;;;;;;1999.90;999.90;;;17.50;99.90;;;;;;5013489;28;20413;-88
2021/09/08 04:24:36;;;;;;;1999.90;999.90;;;17.50;99.90;;;;;;5014674;28;20672;-88
2021/09/08 04:27:02;;;;;;;1999.90;999.90;;;17.50;99.90;;;;;;5014614;28;20585;-88
2021/09/08 04:29:27;;;;;;;1999.90;999.90;;;17.40;99.90;;;;;;5013330;28;20177;-88
2021/09/08 04:31:53;;;;;;;1999.90;999.90;;;17.40;99.90;;;;;;5014901;28;20615;-88
2021/09/08 04:34:19;;;;;;;1999.90;999.90;;;17.40;99.90;;;;;;5014588;28;20166;-88
2021/09/08 04:36:44;;;;;;;1999.90;999.90;;;17.40;99.90;;;;;;5013477;28;20185;-88
2021/09/08 04:39:10;;;;;;;1999.90;999.90;;;17.30;99.90;;;;;;5014780;28;20163;-88
2021/09/08 04:41:36;;;;;;;1999.90;999.90;;;17.40;99.90;;;;;;5014780;28;20158;-88
2021/09/08 04:44:01;;;;;;;1999.90;999.90;;;17.30;99.90;;;;;;5013285;28;20276;-88
2021/09/08 04:46:28;;;;;;;1999.90;999.90;;;17.30;99.90;;;;;;5013337;28;20273;-88
2021/09/08 04:48:54;;;;;;;1999.90;999.90;;;17.20;99.90;;;;;;5013214;28;20170;-88
2021/09/08 04:51:19;;;;;;;1999.90;999.90;;;17.20;99.90;;;;;;5014111;28;20784;-88
2021/09/08 04:53:45;;;;;;;1999.90;999.90;;;17.20;99.90;;;;;;5014141;28;20630;-88
2021/09/08 04:56:11;;;;;;;1999.90;999.90;;;17.20;99.90;;;;;;5013817;28;20190;-88
2021/09/08 04:58:36;;;;;;;1999.90;999.90;;;17.20;99.90;;;;;;5014626;28;20244;-88
2021/09/08 05:01:02;;;;;;;1999.90;999.90;;;17.20;99.90;;;;;;5014765;28;20170;-88
2021/09/08 05:03:28;;;;;;;1999.90;999.90;;;17.10;99.90;;;;;;5014327;28;20241;-88
2021/09/08 05:05:55;;;;;;;1999.90;999.90;;;17.10;99.90;;;;;;5014424;28;20190;-88
2021/09/08 05:08:21;;;;;;;1999.90;999.90;;;17.20;99.90;;;;;;5014205;28;20529;-88
2021/09/08 05:10:47;;;;;;;1999.90;999.90;;;17.10;99.90;;;;;;5013955;28;20400;-88
2021/09/08 05:13:12;;;;;;;1999.90;999.90;;;17.10;99.90;;;;;;5013043;28;20194;-88
2021/09/08 05:15:38;;;;;;;1999.90;999.90;;;17.10;99.90;;;;;;5013338;28;20169;-88
2021/09/08 05:18:03;;;;;;;1999.90;999.90;;;16.90;99.90;;;;;;5012880;28;20166;-88
2021/09/08 05:20:29;;;;;;;1999.90;999.90;;;16.80;99.90;;;;;;5014623;28;20165;-88
2021/09/08 05:22:55;;;;;;;1999.90;999.90;;;16.70;99.90;;;;;;5014011;28;20172;-88
2021/09/08 05:25:20;;;;;;;1999.90;999.90;;;16.70;99.90;;;;;;5013361;28;20511;-88
2021/09/08 05:27:46;;;;;;;1999.90;999.90;;;16.70;99.90;;;;;;5013892;28;20264;-88
2021/09/08 05:30:12;;;;;;;1999.90;999.90;;;16.80;99.90;;;;;;5013980;28;20509;-88
2021/09/08 05:32:38;;;;;;;1999.90;999.90;;;16.60;99.90;;;;;;5012693;28;20699;-88
2021/09/08 05:35:04;;;;;;;1999.90;999.90;;;16.60;99.90;;;;;;5013283;28;20427;-88
2021/09/08 05:37:29;;;;;;;1999.90;999.90;;;16.60;99.90;;;;;;5012926;28;20190;-88
2021/09/08 05:39:55;;;;;;;1999.90;999.90;;;16.50;99.90;;;;;;5012877;28;20456;-87
2021/09/08 05:42:21;;;;;;;1999.90;999.90;;;16.50;99.90;;;;;;5014253;28;20177;-88
2021/09/08 05:44:46;;;;;;;1999.90;999.90;;;16.60;99.90;;;;;;5013712;28;20177;-88
2021/09/08 05:47:13;;;;;;;1999.90;999.90;;;16.70;99.90;;;;;;5012970;28;20201;-87
2021/09/08 05:49:38;;;;;;;1999.90;999.90;;;16.70;99.90;;;;;;5013183;28;20174;-87
2021/09/08 05:52:04;;;;;;;1999.90;999.90;;;16.80;99.90;;;;;;5013628;28;21043;-87
2021/09/08 05:54:30;;;;;;;1999.90;999.90;;;16.90;99.90;;;;;;5012188;28;20634;-87
2021/09/08 05:56:56;;;;;;;1999.90;999.90;;;17.00;99.90;;;;;;5013429;28;20424;-87
2021/09/08 05:59:22;;;;;;;1999.90;999.90;;;17.00;99.90;;;;;;5012063;28;20440;-88
2021/09/08 06:01:47;;;;;;;1999.90;999.90;;;17.00;99.90;;;;;;5012125;28;20169;-88
2021/09/08 06:04:13;;;;;;;1999.90;999.90;;;17.10;99.90;;;;;;5014783;28;20172;-88
2021/09/08 06:06:39;;;;;;;1999.90;999.90;;;17.00;99.90;;;;;;5016330;28;20632;-88
2021/09/08 06:09:04;;;;;;;1999.90;999.90;;;17.10;99.90;;;;;;5017260;28;20181;-88
2021/09/08 06:11:30;;;;;;;1999.90;999.90;;;17.10;99.90;;;;;;5015937;28;20558;-88
2021/09/08 06:13:56;;;;;;;1999.90;999.90;;;17.00;99.90;;;;;;5016153;28;20216;-88
2021/09/08 06:16:22;;;;;;;1999.90;999.90;;;16.90;99.90;;;;;;5017311;28;20178;-89
2021/09/08 06:18:48;;;;;;;1999.90;999.90;;;16.80;99.90;;;;;;5016090;28;20166;-88
2021/09/08 06:21:14;;;;;;;1999.90;999.90;;;16.90;99.90;;;;;;5016617;28;20420;-88
2021/09/08 06:23:40;;;;;;;1999.90;999.90;;;17.00;99.90;;;;;;5017025;28;20217;-88
2021/09/08 06:26:05;;;;;;;1999.90;999.90;;;17.10;99.90;;;;;;5016464;28;20188;-88
2021/09/08 06:28:31;;;;;;;1999.90;999.90;;;17.10;99.90;;;;;;5016490;28;20451;-88
2021/09/08 06:30:57;;;;;;;1999.90;999.90;;;17.10;99.90;;;;;;5015683;28;20173;-88
2021/09/08 06:33:23;;;;;;;1999.90;999.90;;;17.20;99.90;;;;;;5015562;28;20564;-87
2021/09/08 06:35:50;;;;;;;1999.90;999.90;;;17.20;99.90;;;;;;5015571;28;20946;-88
2021/09/08 06:38:16;;;;;;;1999.90;999.90;;;17.20;99.90;;;;;;5016095;28;20165;-87
2021/09/08 06:40:41;;;;;;;1999.90;999.90;;;17.30;99.90;;;;;;5017229;28;20409;-88
2021/09/08 06:43:07;;;;;;;1999.90;999.90;;;17.30;99.90;;;;;;5015347;28;20508;-88
2021/09/08 06:45:33;;;;;;;1999.90;999.90;;;17.30;99.90;;;;;;5016135;28;20194;-87
2021/09/08 06:47:59;;;;;;;1999.90;999.90;;;17.30;99.90;;;;;;5017083;28;20656;-88
2021/09/08 06:50:24;;;;;;;1999.90;999.90;;;17.40;99.90;;;;;;5016734;28;20455;-88
2021/09/08 06:52:50;;;;;;;1999.90;999.90;;;17.40;99.90;;;;;;5016661;28;20252;-88
2021/09/08 06:55:16;;;;;;;1999.90;999.90;;;17.50;99.90;;;;;;5017026;28;20209;-88
2021/09/08 06:57:41;;;;;;;1999.90;999.90;;;17.50;99.90;;;;;;5016817;28;20189;-88
2021/09/08 07:00:08;;;;;;;1999.90;999.90;;;17.50;99.90;;;;;;5018263;28;20629;-89
2021/09/08 07:02:33;;;;;;;1999.90;999.90;;;17.60;99.90;;;;;;5016249;28;20170;-88
2021/09/08 07:04:59;;;;;;;1999.90;999.90;;;17.60;99.90;;;;;;5015279;28;20824;-87
2021/09/08 07:07:25;;;;;;;1999.90;999.90;;;17.60;99.90;;;;;;5016398;28;20701;-88
2021/09/08 07:09:50;;;;;;;1999.90;999.90;;;17.60;99.90;;;;;;5015013;28;20197;-88
2021/09/08 07:12:16;;;;;;;1999.90;999.90;;;17.70;99.90;;;;;;5016866;28;20190;-88
2021/09/08 07:14:42;;;;;;;1999.90;999.90;;;17.70;99.90;;;;;;5016285;28;20626;-87
2021/09/08 07:17:08;;;;;;;1999.90;999.90;;;17.70;99.90;;;;;;5014285;28;20193;-88
2021/09/08 07:19:33;;;;;;;1999.90;999.90;;;17.80;99.90;;;;;;5014890;28;20170;-88
2021/09/08 07:22:00;;;;;;;1999.90;999.90;;;17.80;99.90;;;;;;5016845;28;20201;-87
2021/09/08 07:24:26;;;;;;;1999.90;999.90;;;17.80;99.90;;;;;;5016254;28;20413;-88
2021/09/08 07:26:56;;;;;;;1999.90;999.90;;;17.90;99.90;;;;;;5014969;28;20435;-87
2021/09/08 07:29:22;;;;;;;1999.90;999.90;;;17.90;99.90;;;;;;5016365;28;20182;-87
2021/09/08 07:31:48;;;;;;;1999.90;999.90;;;18.00;99.90;;;;;;5015065;28;20881;-88
2021/09/08 07:34:13;;;;;;;1999.90;999.90;;;18.00;99.90;;;;;;5015824;28;20436;-88
2021/09/08 07:36:39;;;;;;;1999.90;999.90;;;18.00;99.90;;;;;;5015714;28;20182;-88
2021/09/08 07:39:05;;;;;;;1999.90;999.90;;;18.10;99.90;;;;;;5016141;28;20166;-87
2021/09/08 07:41:30;;;;;;;1999.90;999.90;;;18.20;99.90;;;;;;5015153;28;20197;-87
2021/09/08 07:43:56;;;;;;;1999.90;999.90;;;18.20;99.90;;;;;;5014550;28;20185;-88
2021/09/08 07:46:22;;;;;;;1999.90;999.90;;;18.30;99.90;;;;;;5014398;28;20186;-87
2021/09/08 07:48:47;;;;;;;1999.90;999.90;;;18.30;99.90;;;;;;5016164;28;20170;-87
2021/09/08 07:51:13;;;;;;;1999.90;999.90;;;18.40;99.90;;;;;;5015653;28;20537;-87
2021/09/08 07:53:39;;;;;;;1999.90;999.90;;;18.50;99.90;;;;;;5014423;28;20211;-87
2021/09/08 07:56:04;;;;;;;1999.90;999.90;;;18.60;99.90;;;;;;5015240;28;20197;-88
2021/09/08 07:58:30;;;;;;;1999.90;999.90;;;18.70;99.90;;;;;;5015744;28;20248;-87
2021/09/08 08:00:57;;;;;;;1999.90;999.90;;;18.70;99.90;;;;;;5015557;28;20410;-88
2021/09/08 08:03:23;;;;;;;1999.90;999.90;;;18.70;99.90;;;;;;5014319;28;20244;-87
2021/09/08 08:05:48;;;;;;;1999.90;999.90;;;18.70;99.90;;;;;;5015242;28;20896;-88
2021/09/08 08:08:14;;;;;;;1999.90;999.90;;;18.80;99.90;;;;;;5014270;28;20228;-88
2021/09/08 08:10:41;;;;;;;1999.90;999.90;;;18.90;99.90;;;;;;5016055;28;20178;-87
2021/09/08 08:13:07;;;;;;;1999.90;999.90;;;18.90;99.90;;;;;;5014597;28;20484;-87
2021/09/08 08:15:33;;;;;;;1999.90;999.90;;;19.00;99.90;;;;;;5014228;28;20919;-87
2021/09/08 08:17:59;;;;;;;1999.90;999.90;;;19.10;99.90;;;;;;5014277;28;20921;-87
2021/09/08 08:20:25;;;;;;;1999.90;999.90;;;19.10;99.90;;;;;;5014114;28;20420;-88
2021/09/08 08:22:51;;;;;;;1999.90;999.90;;;19.20;99.90;;;;;;5015497;28;20185;-87
2021/09/08 08:25:20;;;;;;;1999.90;999.90;;;19.20;99.90;;;;;;5015060;28;20416;-88
2021/09/08 08:27:48;;;;;;;1999.90;999.90;;;19.30;99.90;;;;;;5012929;28;20445;-88
2021/09/08 08:30:16;;;;;;;1999.90;999.90;;;19.40;99.90;;;;;;5014826;28;20421;-88
2021/09/08 08:32:42;;;;;;;1999.90;999.90;;;19.50;99.90;;;;;;5014934;28;20444;-88
2021/09/08 08:35:11;;;;;;;1999.90;999.90;;;19.50;99.90;;;;;;5014943;28;20496;-88
2021/09/08 08:37:37;;;;;;;1999.90;999.90;;;19.60;99.90;;;;;;5017723;28;20452;-88
2021/09/08 08:40:05;;;;;;;1999.90;999.90;;;19.60;99.90;;;;;;5014733;28;20499;-88
2021/09/08 08:42:39;;;;;;;1999.90;999.90;;;19.70;99.90;;;;;;5016187;28;20776;-88
2021/09/08 08:45:26;;;;;;;1999.90;999.90;;;19.80;99.90;;;;;;5013558;28;20788;-89
2021/09/08 08:47:53;;;;;;;1999.90;999.90;;;19.80;99.90;;;;;;5013618;28;20852;-88
2021/09/08 08:50:19;;;;;;;1999.90;999.90;;;19.90;99.90;;;;;;5015135;28;20392;-88
2021/09/08 08:52:45;;;;;;;1999.90;999.90;;;20.00;99.90;;;;;;5013459;28;20820;-88
2021/09/08 08:55:12;;;;;;;1999.90;999.90;;;20.00;99.90;;;;;;5013083;28;20429;-88
2021/09/08 08:57:39;;;;;;;1999.90;999.90;;;20.10;99.90;;;;;;5012949;28;20429;-88
2021/09/08 09:00:05;;;;;;;1999.90;999.90;;;20.20;99.90;;;;;;5013511;28;20456;-89
2021/09/08 09:02:33;;;;;;;1999.90;999.90;;;20.30;99.90;;;;;;5014325;28;20492;-88
2021/09/08 09:05:05;;;;;;;1999.90;999.90;;;20.40;99.90;;;;;;5014090;28;20783;-89
2021/09/08 09:07:36;;;;;;;1999.90;999.90;;;20.50;99.90;;;;;;5014777;28;20791;-88
2021/09/08 09:10:09;;;;;;;1999.90;999.90;;;20.60;99.90;;;;;;5014286;28;20426;-89
2021/09/08 09:12:38;;;;;;;1999.90;999.90;;;20.70;99.90;;;;;;5015815;28;20474;-88
2021/09/08 09:15:10;;;;;;;1999.90;999.90;;;20.70;99.90;;;;;;5017801;28;20421;-88
2021/09/08 09:17:37;;;;;;;1999.90;999.90;;;20.80;99.90;;;;;;5019253;28;20431;-88
2021/09/08 09:20:11;;;;;;;1999.90;999.90;;;20.90;99.90;;;;;;5015634;28;20434;-88
2021/09/08 09:22:46;;;;;;;1999.90;999.90;;;20.90;99.90;;;;;;5014199;28;20402;-89
2021/09/08 09:25:18;;;;;;;1999.90;999.90;;;21.10;99.90;;;;;;5014596;28;20385;-88
2021/09/08 09:28:04;;;;;;;1999.90;999.90;;;21.20;99.90;;;;;;5014368;28;20477;-88
2021/09/08 09:30:34;;;;;;;1999.90;999.90;;;21.40;99.90;;;;;;5012516;28;20416;-88
2021/09/08 09:33:00;;;;;;;1999.90;999.90;;;21.50;99.90;;;;;;5012620;28;20868;-88
2021/09/08 09:35:33;;;;;;;1999.90;999.90;;;21.70;99.90;;;;;;5012565;28;20444;-88
2021/09/08 09:38:04;;;;;;;1999.90;999.90;;;21.80;99.90;;;;;;5013627;28;20439;-88
2021/09/08 09:40:38;;;;;;;1999.90;999.90;;;21.80;99.90;;;;;;5012599;28;20420;-88
2021/09/08 10:10:45;;;;;;;;;;;;;;;;;;;;;
2021/09/08 10:14:12;;;;;;;;;;;;;;;;;;;;;
2021/09/08 10:17:54;;;;;;;;;;;;;;;;;;;;;
2021/09/08 10:25:03;;;;;;;;;;;;;;;;;;;;;
2021/09/08 10:31:10;;;;;;;;;;;;;;;;;;;;;
2021/09/08 10:34:11;;;;;;;;;;;;;;;;;;;;;
2021/09/08 10:37:00;;;;;;;;;;;;;;;;;;;;;
2021/09/08 10:40:04;;;;;;;;;;;;;;;;;;;;;
2021/09/08 10:48:57;;;;;;;1999.90;999.90;;;24.90;82.90;;;;;;5012664;23;20834;-86
2021/09/08 10:51:44;;;;;;;1999.90;999.90;;;25.00;84.60;;;;;;5014010;28;20939;-86
2021/09/08 10:54:10;;;;;;;1999.90;999.90;;;25.00;81.50;;;;;;5017647;28;20816;-86
2021/09/08 10:56:45;;;;;;;1999.90;999.90;;;25.10;75.60;;;;;;5015446;28;20428;-86
2021/09/08 10:59:11;;;;;;;1999.90;999.90;;;25.20;70.30;;;;;;5016441;28;20529;-86
2021/09/08 11:01:37;;;;;;;1999.90;999.90;;;25.20;72.70;;;;;;5015106;28;20410;-86
2021/09/08 11:04:03;;;;;;;1999.90;999.90;;;25.50;70.80;;;;;;5016252;28;20418;-86
2021/09/08 11:06:56;;;;;;;1999.90;999.90;;;25.60;64.50;;;;;;5014814;28;20538;-86
2021/09/08 11:09:22;;;;;;;1999.90;999.90;;;25.70;62.30;;;;;;5013723;28;20788;-86
2021/09/08 11:11:52;;;;;;;1999.90;999.90;;;25.80;54.00;;;;;;5014697;28;20804;-86
2021/09/08 11:14:19;;;;;;;1999.90;999.90;;;26.00;62.20;;;;;;5016650;28;20388;-86
2021/09/08 11:16:45;;;;;;;1999.90;999.90;;;26.10;47.20;;;;;;5016086;28;20804;-86
2021/09/08 11:19:13;;;;;;;1999.90;999.90;;;26.30;51.50;;;;;;5015872;28;20408;-86
2021/09/08 11:21:39;;;;;;;1999.90;999.90;;;26.30;37.80;;;;;;5015851;28;20174;-86
2021/09/08 11:24:08;;;;;;;1999.90;999.90;;;26.40;33.80;;;;;;5015906;28;20444;-86
2021/09/08 11:26:36;;;;;;;1999.90;999.90;;;26.50;37.50;;;;;;5016010;28;20471;-86
2021/09/08 11:33:03;;;;;;;1999.90;999.90;;;26.30;23.50;;;;;;4916750;29;20464;-85
2021/09/08 11:35:38;;;;;;;1999.90;999.90;;;26.30;36.40;;;;;;4938187;28;20408;-86
2021/09/08 11:42:04;;;;;;;;;;;;;;;;;;;;;
2021/09/08 11:44:45;;;;;;;1999.90;999.90;;;26.50;30.70;;;;;;4993104;28;20896;-86
2021/09/08 11:47:34;;;;;;;1999.90;999.90;;;26.80;29.10;;;;;;5013895;28;20444;-86
2021/09/08 11:50:01;;;;;;;1999.90;999.90;;;27.00;28.00;;;;;;5016057;28;20400;-86
2021/09/08 11:52:27;;;;;;;1999.90;999.90;;;27.00;19.10;;;;;;5016969;28;20539;-86
2021/09/08 11:54:53;;;;;;;1999.90;999.90;;;26.80;20.20;;;;;;5016120;28;20397;-86
2021/09/08 11:57:25;;;;;;;1999.90;999.90;;;26.80;18.90;;;;;;5015879;28;20532;-86
2021/09/08 12:00:08;;;;;;;1999.90;999.90;;;26.90;27.20;;;;;;5014809;28;20209;-86
2021/09/08 12:02:35;;;;;;;1999.90;999.90;;;27.20;18.50;;;;;;5013978;28;20887;-86
2021/09/08 12:05:01;;;;;;;1999.90;999.90;;;27.20;22.10;;;;;;5016117;28;20490;-85
2021/09/08 12:07:30;;;;;;;1999.90;999.90;;;27.30;22.60;;;;;;5015721;28;20516;-85
2021/09/08 12:09:55;;;;;;;1999.90;999.90;;;27.50;13.70;;;;;;5015083;28;20170;-85
2021/09/08 12:12:22;;;;;;;1999.90;999.90;;;27.40;6.20;;;;;;5016042;28;20459;-85
2021/09/08 12:14:49;;;;;;;1999.90;999.90;;;27.40;12.80;;;;;;5015871;28;20566;-85
2021/09/08 12:17:20;;;;;;;1999.90;999.90;;;27.50;8.80;;;;;;5016008;28;20424;-85
2021/09/08 12:20:08;;;;;;;1999.90;999.90;;;27.70;13.70;;;;;;5016801;28;20404;-85
2021/09/08 12:22:38;;;;;;;1999.90;999.90;;;27.60;1.80;;;;;;5016229;28;20397;-85
2021/09/08 12:25:19;;;;;;;1999.90;999.90;;;27.60;12.30;;;;;;5015627;28;20389;-85
2021/09/08 12:27:47;;;;;;;1999.90;999.90;;;27.70;6.20;;;;;;5017401;28;20433;-86
2021/09/08 12:30:13;;;;;;;1999.90;999.90;;;27.80;2.80;;;;;;5015849;28;20463;-85
2021/09/08 12:32:44;;;;;;;1999.90;999.90;;;27.60;1.00;;;;;;5015183;28;20955;-85
2021/09/08 12:35:29;;;;;;;1999.90;999.90;;;27.50;1.10;;;;;;5015036;28;20209;-85
2021/09/08 12:37:55;;;;;;;1999.90;999.90;;;27.60;1.00;;;;;;5014677;28;20439;-85
2021/09/08 12:40:21;;;;;;;1999.90;999.90;;;27.60;1.00;;;;;;5014635;28;20397;-85
2021/09/08 12:42:47;;;;;;;1999.90;999.90;;;27.30;1.00;;;;;;5014283;28;20498;-85
2021/09/08 12:45:15;;;;;;;1999.90;999.90;;;27.50;1.00;;;;;;5014754;28;20143;-85
2021/09/08 12:48:23;;;;;;;1999.90;999.90;;;27.60;1.00;;;;;;5015256;28;20954;-85
2021/09/08 12:51:01;;;;;;;1999.90;999.90;;;27.70;1.00;;;;;;4976077;28;21081;-85
2021/09/08 12:53:31;;;;;;;1999.90;999.90;;;27.60;1.00;;;;;;5011857;28;20467;-85
2021/09/08 12:55:56;;;;;;;1999.90;999.90;;;27.50;1.00;;;;;;5014568;28;20467;-85
2021/09/08 12:58:31;;;;;;;1999.90;999.90;;;27.50;1.00;;;;;;5014821;28;20409;-85
2021/09/08 13:00:57;;;;;;;1999.90;999.90;;;27.50;1.00;;;;;;5014858;28;20189;-85
2021/09/08 13:03:23;;;;;;;1999.90;999.90;;;27.80;1.00;;;;;;5014818;28;20401;-85
2021/09/08 13:05:49;;;;;;;1999.90;999.90;;;27.80;1.00;;;;;;5014467;28;20212;-85